Time;durP1;ratioP1;P1;durP2;ratioP2;P2;SDS_P1;SDS_P2;PMS_P1;PMS_P2;Temp;Humidity;BMP_temperature;BMP_pressure;BME280_temperature;BME280_humidity;BME280_pressure;Samples;Min_cycle;Max_cycle;Signal;HPM_P1;HPM_P2
2023/09/12 00:01:22;;;;;;;8.68;7.38;;;23.40;69.10;;;;;;5029053;28;20113;-52
2023/09/12 00:03:49;;;;;;;9.63;6.50;;;23.30;68.40;;;;;;5027795;28;20041;-55
2023/09/12 00:06:20;;;;;;;9.27;6.88;;;23.30;67.90;;;;;;5027542;28;20044;-53
2023/09/12 00:08:47;;;;;;;12.38;7.70;;;23.30;68.60;;;;;;5029795;28;20037;-52
2023/09/12 00:11:15;;;;;;;8.38;6.90;;;23.30;68.40;;;;;;5028640;28;20705;-50
2023/09/12 00:13:44;;;;;;;10.02;8.18;;;23.20;68.20;;;;;;5028144;28;20096;-51
2023/09/12 00:16:15;;;;;;;11.10;8.23;;;23.20;69.20;;;;;;5027958;28;20044;-51
2023/09/12 00:18:42;;;;;;;12.48;7.63;;;23.20;69.20;;;;;;5029094;28;20526;-53
2023/09/12 00:21:12;;;;;;;9.75;7.57;;;23.20;69.70;;;;;;5028980;28;20037;-51
2023/09/12 00:23:48;;;;;;;10.45;8.10;;;23.20;70.00;;;;;;5024993;28;20120;-53
2023/09/12 00:26:19;;;;;;;8.20;7.35;;;23.20;70.20;;;;;;5029177;28;20124;-51
2023/09/12 00:28:50;;;;;;;10.07;7.18;;;23.20;70.60;;;;;;5011100;28;20552;-52
2023/09/12 00:31:17;;;;;;;10.00;7.07;;;23.20;70.30;;;;;;5021244;28;20546;-52
2023/09/12 00:33:44;;;;;;;9.70;7.90;;;23.20;70.30;;;;;;5012695;28;20526;-51
2023/09/12 00:36:11;;;;;;;9.60;8.50;;;23.20;70.30;;;;;;5025942;28;20124;-51
2023/09/12 00:38:38;;;;;;;7.85;6.90;;;23.20;70.40;;;;;;5029418;28;20049;-54
2023/09/12 00:41:09;;;;;;;8.57;7.45;;;23.20;70.30;;;;;;5010725;28;20092;-54
2023/09/12 00:43:36;;;;;;;9.25;7.60;;;23.20;70.80;;;;;;5022871;28;20104;-50
2023/09/12 00:46:03;;;;;;;9.50;7.25;;;23.20;70.10;;;;;;5028794;28;20125;-52
2023/09/12 00:48:30;;;;;;;17.98;7.05;;;23.20;70.30;;;;;;5010681;28;20041;-52
2023/09/12 00:50:59;;;;;;;8.43;7.45;;;23.20;70.70;;;;;;5028814;28;20073;-53
2023/09/12 00:53:26;;;;;;;8.80;6.65;;;23.30;70.90;;;;;;5023972;28;20060;-54
2023/09/12 00:55:58;;;;;;;7.82;7.13;;;23.30;71.00;;;;;;5028906;28;20052;-54
2023/09/12 00:58:26;;;;;;;9.77;6.82;;;23.30;71.60;;;;;;5028476;28;20045;-52
2023/09/12 01:00:58;;;;;;;10.45;7.88;;;23.30;71.20;;;;;;5022668;28;20057;-54
2023/09/12 01:03:27;;;;;;;9.45;7.15;;;23.40;71.00;;;;;;5026886;28;20565;-52
2023/09/12 01:05:55;;;;;;;9.40;7.65;;;23.40;70.70;;;;;;5025411;28;20491;-52
2023/09/12 01:08:24;;;;;;;11.00;7.40;;;23.50;70.80;;;;;;5028393;28;20041;-50
2023/09/12 01:10:57;;;;;;;9.73;8.73;;;23.40;70.80;;;;;;5028388;28;20077;-53
2023/09/12 01:13:24;;;;;;;10.25;8.90;;;23.50;71.00;;;;;;5013542;28;20103;-52
2023/09/12 01:15:51;;;;;;;10.82;8.63;;;23.50;70.50;;;;;;5025146;28;20052;-53
2023/09/12 01:18:20;;;;;;;10.15;9.00;;;23.50;70.50;;;;;;5033176;28;20499;-50
2023/09/12 01:21:12;;;;;;;10.32;8.43;;;23.60;70.60;;;;;;5032248;28;20041;-51
2023/09/12 01:24:05;;;;;;;11.88;9.48;;;23.60;70.60;;;;;;5031703;28;20041;-51
2023/09/12 01:26:54;;;;;;;9.02;8.05;;;23.60;70.90;;;;;;5030270;28;20067;-53
2023/09/12 01:29:22;;;;;;;9.05;8.13;;;23.50;70.90;;;;;;5032155;28;20060;-54
2023/09/12 01:31:56;;;;;;;13.07;9.52;;;23.70;70.20;;;;;;5032266;28;20038;-52
2023/09/12 01:34:25;;;;;;;10.40;8.80;;;23.70;70.40;;;;;;5028324;28;20568;-53
2023/09/12 01:36:51;;;;;;;11.38;8.82;;;23.70;70.40;;;;;;5031052;28;20068;-52
2023/09/12 01:39:18;;;;;;;10.45;8.48;;;23.70;70.40;;;;;;5031838;28;20466;-54
2023/09/12 01:41:47;;;;;;;12.25;10.05;;;23.70;70.30;;;;;;5029074;28;20065;-50
2023/09/12 01:44:16;;;;;;;9.63;8.65;;;23.70;70.20;;;;;;5014543;28;20047;-50
2023/09/12 01:46:49;;;;;;;11.43;9.15;;;23.70;70.30;;;;;;5032630;28;20041;-53
2023/09/12 01:49:19;;;;;;;11.02;8.82;;;23.70;70.50;;;;;;5032205;28;20629;-51
2023/09/12 01:51:51;;;;;;;11.18;8.52;;;23.70;70.20;;;;;;5027726;28;20041;-52
2023/09/12 01:54:22;;;;;;;10.23;9.07;;;23.70;69.80;;;;;;5014459;28;20034;-51
2023/09/12 01:56:57;;;;;;;12.35;10.02;;;23.70;70.00;;;;;;5032177;28;20515;-52
2023/09/12 01:59:24;;;;;;;13.45;9.90;;;23.70;70.60;;;;;;5012598;28;20041;-52
2023/09/12 02:01:53;;;;;;;13.32;10.95;;;23.70;70.10;;;;;;5030471;28;20507;-52
2023/09/12 02:04:24;;;;;;;12.35;9.38;;;23.70;70.50;;;;;;5030170;28;20065;-50
2023/09/12 02:06:53;;;;;;;11.95;10.52;;;23.70;70.30;;;;;;5030686;28;20538;-51
2023/09/12 02:09:22;;;;;;;13.98;10.95;;;23.70;70.50;;;;;;5031390;28;20507;-53
2023/09/12 02:11:53;;;;;;;15.18;12.35;;;23.70;70.50;;;;;;5030451;28;20053;-53
2023/09/12 02:14:19;;;;;;;16.27;13.63;;;23.70;70.40;;;;;;5025564;28;20042;-52
2023/09/12 02:16:46;;;;;;;21.08;14.75;;;23.60;70.30;;;;;;5025733;28;20048;-51
2023/09/12 02:19:15;;;;;;;21.63;14.63;;;23.60;70.30;;;;;;5027794;28;20423;-54
2023/09/12 02:21:42;;;;;;;18.45;12.50;;;23.60;70.80;;;;;;5031340;28;20384;-51
2023/09/12 02:24:11;;;;;;;17.00;14.20;;;23.50;70.30;;;;;;5012267;28;20048;-52
2023/09/12 02:26:37;;;;;;;15.55;13.05;;;23.50;70.30;;;;;;5029907;28;20065;-52
2023/09/12 02:29:07;;;;;;;16.38;12.95;;;23.50;71.00;;;;;;5029986;28;20479;-54
2023/09/12 02:31:34;;;;;;;15.02;11.68;;;23.40;70.80;;;;;;5023717;28;20093;-51
2023/09/12 02:34:00;;;;;;;16.33;13.27;;;23.40;70.50;;;;;;5012311;28;20076;-53
2023/09/12 02:36:28;;;;;;;15.55;13.80;;;23.40;70.70;;;;;;5028959;28;20052;-53
2023/09/12 02:38:55;;;;;;;14.02;11.63;;;23.40;70.80;;;;;;5030318;28;20068;-52
2023/09/12 02:41:27;;;;;;;15.35;11.57;;;23.40;70.80;;;;;;5029286;28;20100;-52
2023/09/12 02:43:58;;;;;;;14.95;11.48;;;23.40;70.70;;;;;;5014858;28;20637;-54
2023/09/12 02:46:25;;;;;;;17.10;12.73;;;23.40;70.90;;;;;;5031026;28;20479;-53
2023/09/12 02:48:53;;;;;;;13.35;11.50;;;23.40;70.80;;;;;;5030542;28;20061;-52
2023/09/12 02:51:25;;;;;;;11.98;10.45;;;23.40;70.90;;;;;;5028788;28;20057;-53
2023/09/12 02:53:52;;;;;;;13.40;10.88;;;23.40;71.00;;;;;;5030005;28;20045;-53
2023/09/12 02:56:19;;;;;;;14.93;11.20;;;23.30;70.90;;;;;;5029283;28;20092;-51
2023/09/12 02:58:46;;;;;;;13.88;12.38;;;23.30;70.80;;;;;;5006481;28;20046;-52
2023/09/12 03:01:22;;;;;;;13.18;11.82;;;23.30;71.00;;;;;;5029401;28;20045;-54
2023/09/12 03:03:51;;;;;;;14.35;11.77;;;23.30;71.10;;;;;;5029660;28;20100;-52
2023/09/12 03:06:18;;;;;;;13.80;11.30;;;23.30;70.90;;;;;;5027994;28;20038;-50
2023/09/12 03:08:45;;;;;;;12.35;10.55;;;23.30;70.80;;;;;;5029012;28;20073;-52
2023/09/12 03:11:14;;;;;;;13.90;11.82;;;23.20;70.70;;;;;;5030848;28;20045;-52
2023/09/12 03:13:41;;;;;;;14.60;12.05;;;23.20;71.00;;;;;;5025870;28;20057;-52
2023/09/12 03:16:12;;;;;;;17.30;13.73;;;23.20;71.40;;;;;;5007064;28;20064;-52
2023/09/12 03:18:39;;;;;;;18.17;13.90;;;23.20;71.00;;;;;;5012371;28;20498;-50
2023/09/12 03:21:08;;;;;;;20.05;14.40;;;23.20;71.10;;;;;;5013722;28;20038;-50
2023/09/12 03:23:35;;;;;;;19.13;15.35;;;23.20;71.20;;;;;;5027397;28;20044;-51
2023/09/12 03:26:03;;;;;;;18.73;15.73;;;23.20;71.20;;;;;;5029090;28;20051;-54
2023/09/12 03:28:32;;;;;;;17.65;14.98;;;23.10;71.30;;;;;;5028374;28;20585;-53
2023/09/12 03:31:15;;;;;;;19.08;15.93;;;23.10;71.50;;;;;;5031512;28;20120;-53
2023/09/12 03:33:49;;;;;;;16.13;13.48;;;23.20;72.30;;;;;;5017318;28;20159;-50
2023/09/12 03:36:19;;;;;;;19.10;15.43;;;23.10;71.60;;;;;;5008121;28;20076;-52
2023/09/12 03:38:47;;;;;;;18.10;14.32;;;23.20;71.80;;;;;;5011714;28;20044;-51
2023/09/12 03:41:15;;;;;;;18.75;14.63;;;23.10;72.00;;;;;;5012790;28;20041;-50
2023/09/12 03:43:41;;;;;;;14.88;13.38;;;23.10;72.70;;;;;;5011576;28;20057;-55
2023/09/12 03:46:13;;;;;;;21.63;14.07;;;23.10;71.90;;;;;;5019511;28;20037;-52
2023/09/12 03:48:40;;;;;;;17.75;13.57;;;23.10;71.90;;;;;;5011467;28;20108;-52
2023/09/12 03:51:07;;;;;;;18.05;13.45;;;23.20;71.90;;;;;;5030798;28;20044;-51
2023/09/12 03:53:36;;;;;;;16.10;14.02;;;23.20;72.00;;;;;;5009413;28;20108;-51
2023/09/12 03:56:05;;;;;;;15.43;13.77;;;23.20;72.00;;;;;;5029368;28;20466;-51
2023/09/12 03:58:35;;;;;;;;;;;23.20;72.10;;;;;;5029133;28;20403;-52
2023/09/12 04:01:04;;;;;;;16.85;12.80;;;23.20;72.40;;;;;;5019510;28;19930;-50
2023/09/12 04:03:30;;;;;;;18.27;14.20;;;23.20;71.40;;;;;;5027674;28;20053;-51
2023/09/12 04:06:00;;;;;;;17.38;14.77;;;23.20;71.50;;;;;;5025057;28;20037;-50
2023/09/12 04:08:32;;;;;;;18.20;14.30;;;23.20;72.00;;;;;;5027951;28;20551;-51
2023/09/12 04:11:02;;;;;;;18.00;14.80;;;23.20;71.90;;;;;;5030575;28;20407;-51
2023/09/12 04:13:32;;;;;;;19.65;15.70;;;23.20;72.10;;;;;;5017549;28;20408;-51
2023/09/12 04:15:59;;;;;;;19.42;15.25;;;23.20;72.20;;;;;;5022548;28;20045;-51
2023/09/12 04:18:26;;;;;;;17.13;15.02;;;23.20;72.00;;;;;;5026548;28;20041;-54
2023/09/12 04:20:57;;;;;;;17.88;14.82;;;23.20;72.10;;;;;;5023380;28;20038;-51
2023/09/12 04:23:25;;;;;;;18.55;14.20;;;23.20;72.10;;;;;;5025820;28;20041;-53
2023/09/12 04:25:52;;;;;;;17.83;15.93;;;23.20;72.20;;;;;;5010066;28;20048;-52
2023/09/12 04:28:19;;;;;;;17.30;15.10;;;23.10;72.10;;;;;;5021373;28;20034;-52
2023/09/12 04:30:49;;;;;;;18.23;15.23;;;23.20;73.00;;;;;;5023076;28;20049;-50
2023/09/12 04:33:16;;;;;;;17.70;14.13;;;23.20;72.10;;;;;;5027076;28;20037;-50
2023/09/12 04:35:45;;;;;;;20.30;17.20;;;23.20;72.20;;;;;;5010723;28;20505;-53
2023/09/12 04:38:12;;;;;;;19.02;15.27;;;23.20;72.10;;;;;;5025711;28;20045;-51
2023/09/12 04:40:39;;;;;;;18.20;14.73;;;23.10;71.80;;;;;;5017386;28;20041;-51
2023/09/12 04:43:09;;;;;;;19.73;15.05;;;23.10;71.50;;;;;;5026859;28;20033;-53
2023/09/12 04:45:36;;;;;;;19.85;14.93;;;23.10;71.60;;;;;;5028123;28;20034;-53
2023/09/12 04:48:06;;;;;;;19.85;15.15;;;23.10;71.50;;;;;;5005140;28;20544;-52
2023/09/12 04:50:33;;;;;;;16.55;14.05;;;23.10;72.00;;;;;;5028110;28;20431;-52
2023/09/12 04:53:10;;;;;;;17.23;13.80;;;23.10;72.00;;;;;;5010647;28;20051;-52
2023/09/12 04:55:38;;;;;;;18.08;14.30;;;23.10;72.50;;;;;;5007230;28;20045;-50
2023/09/12 04:58:12;;;;;;;18.77;13.25;;;23.10;72.30;;;;;;5007979;28;20124;-55
2023/09/12 05:00:42;;;;;;;17.65;14.35;;;23.10;72.10;;;;;;5020311;28;20491;-51
2023/09/12 05:03:11;;;;;;;17.67;13.73;;;23.10;72.00;;;;;;5010445;28;20045;-55
2023/09/12 05:05:46;;;;;;;15.15;12.05;;;23.10;72.00;;;;;;5008664;28;20056;-52
2023/09/12 05:08:14;;;;;;;24.55;13.32;;;23.10;72.20;;;;;;5016304;28;20095;-52
2023/09/12 05:10:46;;;;;;;17.27;13.05;;;23.00;72.20;;;;;;5010799;28;20053;-55
2023/09/12 05:13:24;;;;;;;17.25;13.27;;;23.00;72.70;;;;;;5009138;28;20056;-54
2023/09/12 05:15:51;;;;;;;17.58;12.48;;;23.00;72.50;;;;;;5028391;28;20088;-52
2023/09/12 05:18:20;;;;;;;15.57;12.60;;;23.00;72.50;;;;;;5010536;28;20041;-52
2023/09/12 05:20:47;;;;;;;20.65;13.77;;;22.90;72.80;;;;;;5026861;28;20059;-52
2023/09/12 05:23:14;;;;;;;14.40;11.82;;;22.90;73.20;;;;;;5027161;28;20061;-51
2023/09/12 05:25:41;;;;;;;13.88;11.25;;;22.90;73.20;;;;;;5029022;28;20373;-53
2023/09/12 05:28:10;;;;;;;13.45;11.00;;;22.80;73.10;;;;;;5012070;28;20044;-53
2023/09/12 05:30:36;;;;;;;16.38;11.82;;;22.80;73.30;;;;;;5025374;28;20053;-55
2023/09/12 05:33:06;;;;;;;14.05;11.77;;;22.70;73.20;;;;;;5026914;28;20049;-52
2023/09/12 05:35:33;;;;;;;14.35;11.95;;;22.70;73.50;;;;;;5005252;28;20049;-53
2023/09/12 05:38:00;;;;;;;16.38;11.98;;;22.70;73.90;;;;;;5028878;28;20500;-52
2023/09/12 05:40:28;;;;;;;13.30;11.95;;;22.70;74.00;;;;;;5011644;28;20053;-51
2023/09/12 05:42:54;;;;;;;15.10;12.23;;;22.70;74.10;;;;;;5010845;28;20033;-52
2023/09/12 05:45:21;;;;;;;15.20;13.18;;;22.60;73.80;;;;;;5022040;28;20561;-54
2023/09/12 05:47:50;;;;;;;16.30;12.57;;;22.60;74.40;;;;;;5025995;28;20045;-53
2023/09/12 05:50:17;;;;;;;15.38;12.63;;;22.60;74.70;;;;;;5029483;28;20165;-53
2023/09/12 05:52:43;;;;;;;13.07;11.70;;;22.60;75.00;;;;;;5010693;28;20045;-52
2023/09/12 05:55:16;;;;;;;16.90;13.57;;;22.60;74.90;;;;;;5011055;28;20133;-54
2023/09/12 05:57:52;;;;;;;16.67;12.57;;;22.60;74.60;;;;;;5028266;28;20054;-51
2023/09/12 06:00:20;;;;;;;16.30;14.43;;;22.60;74.30;;;;;;5031493;28;20041;-55
2023/09/12 06:02:47;;;;;;;14.77;12.23;;;22.60;74.20;;;;;;5009466;28;20156;-51
2023/09/12 06:05:16;;;;;;;16.38;12.95;;;22.60;74.40;;;;;;5030424;28;20033;-53
2023/09/12 06:07:42;;;;;;;17.10;12.60;;;22.60;74.50;;;;;;5032064;28;20120;-55
2023/09/12 06:10:12;;;;;;;17.35;12.05;;;22.50;74.30;;;;;;5032736;28;20068;-54
2023/09/12 06:12:39;;;;;;;17.77;13.27;;;22.50;74.80;;;;;;5028967;28;20068;-55
2023/09/12 06:15:09;;;;;;;17.40;13.57;;;22.50;75.00;;;;;;5031478;28;20049;-52
2023/09/12 06:17:35;;;;;;;15.82;13.43;;;22.50;75.10;;;;;;5030924;28;20046;-55
2023/09/12 06:20:06;;;;;;;17.38;12.52;;;22.60;75.50;;;;;;5029831;28;20124;-55
2023/09/12 06:22:33;;;;;;;14.65;12.77;;;22.60;75.70;;;;;;5030629;28;20038;-51
2023/09/12 06:25:04;;;;;;;14.70;13.10;;;22.60;75.80;;;;;;5033093;28;20120;-54
2023/09/12 06:27:35;;;;;;;13.65;11.88;;;22.70;76.10;;;;;;5031416;28;20092;-54
2023/09/12 06:30:02;;;;;;;15.93;11.43;;;22.70;75.90;;;;;;5030966;28;20029;-52
2023/09/12 06:32:31;;;;;;;13.77;11.93;;;22.70;75.40;;;;;;5030620;28;20151;-51
2023/09/12 06:35:00;;;;;;;13.82;11.40;;;22.70;75.30;;;;;;5028162;28;20049;-54
2023/09/12 06:37:27;;;;;;;14.93;11.98;;;22.70;75.40;;;;;;5030199;28;20049;-51
2023/09/12 06:39:56;;;;;;;16.65;12.98;;;22.80;75.50;;;;;;5015092;28;20052;-55
2023/09/12 06:42:25;;;;;;;13.68;11.55;;;22.80;75.70;;;;;;5013357;28;20197;-52
2023/09/12 06:44:54;;;;;;;14.97;13.33;;;22.80;75.30;;;;;;5030705;28;20037;-50
2023/09/12 06:47:25;;;;;;;16.00;13.40;;;22.90;75.20;;;;;;5031108;28;20045;-55
2023/09/12 06:49:54;;;;;;;12.60;11.30;;;22.90;74.90;;;;;;5032420;28;20077;-53
2023/09/12 06:52:24;;;;;;;16.00;12.85;;;22.90;74.80;;;;;;5012721;28;20086;-54
2023/09/12 06:54:51;;;;;;;18.52;12.57;;;22.90;74.60;;;;;;5025309;28;20048;-51
2023/09/12 06:57:20;;;;;;;14.18;12.48;;;23.00;74.40;;;;;;5031018;28;20053;-52
2023/09/12 06:59:49;;;;;;;14.80;12.45;;;22.80;74.50;;;;;;5026065;28;20053;-53
2023/09/12 07:02:18;;;;;;;14.55;12.07;;;23.00;75.00;;;;;;5027278;28;20667;-50
2023/09/12 07:04:45;;;;;;;12.77;11.40;;;23.00;74.70;;;;;;5025607;28;20052;-51
2023/09/12 07:07:14;;;;;;;15.52;12.52;;;23.00;74.80;;;;;;5027658;28;20125;-53
2023/09/12 07:09:41;;;;;;;15.25;12.52;;;23.00;74.90;;;;;;5030649;28;20112;-52
2023/09/12 07:12:15;;;;;;;13.95;11.80;;;23.00;75.00;;;;;;5028871;28;20132;-53
2023/09/12 07:14:42;;;;;;;12.57;11.25;;;23.00;74.80;;;;;;5029923;28;20655;-50
2023/09/12 07:17:09;;;;;;;14.30;11.45;;;23.00;74.90;;;;;;5030820;28;20144;-54
2023/09/12 07:19:41;;;;;;;14.35;12.35;;;23.00;75.20;;;;;;5031812;28;20053;-51
2023/09/12 07:22:10;;;;;;;14.77;11.65;;;23.10;74.80;;;;;;5028220;28;20517;-55
2023/09/12 07:24:37;;;;;;;13.27;11.80;;;23.10;74.70;;;;;;5031436;28;20069;-52
2023/09/12 07:27:04;;;;;;;13.13;11.02;;;23.20;74.70;;;;;;5030735;28;20116;-53
2023/09/12 07:29:31;;;;;;;12.40;11.20;;;23.20;74.80;;;;;;5031325;28;20125;-51
2023/09/12 07:31:59;;;;;;;13.27;11.88;;;23.30;74.30;;;;;;5025929;28;20069;-51
2023/09/12 07:34:29;;;;;;;12.82;11.35;;;23.40;74.80;;;;;;5028035;28;20045;-51
2023/09/12 07:36:56;;;;;;;12.15;10.30;;;23.40;74.40;;;;;;5028287;28;20045;-52
2023/09/12 07:39:24;;;;;;;14.45;10.70;;;23.40;74.30;;;;;;5031403;28;20407;-51
2023/09/12 07:41:53;;;;;;;12.93;10.73;;;23.60;74.10;;;;;;5028249;28;20042;-51
2023/09/12 07:44:25;;;;;;;13.27;11.80;;;23.60;74.20;;;;;;5030250;28;20045;-52
2023/09/12 07:46:51;;;;;;;12.95;10.70;;;23.60;73.70;;;;;;5024750;28;20119;-50
2023/09/12 07:49:19;;;;;;;11.45;10.27;;;23.70;73.40;;;;;;5031493;28;20435;-52
2023/09/12 07:51:47;;;;;;;10.73;9.70;;;23.70;72.80;;;;;;5021987;28;20046;-53
2023/09/12 07:54:22;;;;;;;10.40;8.65;;;23.70;72.30;;;;;;5030034;28;20096;-51
2023/09/12 07:56:52;;;;;;;9.57;8.23;;;23.70;72.30;;;;;;5024464;28;20076;-51
2023/09/12 07:59:19;;;;;;;9.88;8.45;;;23.70;71.50;;;;;;5031037;28;20049;-51
2023/09/12 08:01:47;;;;;;;9.20;7.70;;;23.70;72.20;;;;;;5018403;28;20030;-51
2023/09/12 08:04:14;;;;;;;9.07;8.15;;;23.70;71.90;;;;;;5028269;28;20053;-52
2023/09/12 08:06:41;;;;;;;8.93;8.02;;;23.70;72.20;;;;;;5029905;28;20052;-51
2023/09/12 08:09:26;;;;;;;;;;;23.70;72.20;;;;;;5030369;28;20088;-50
2023/09/12 08:11:53;;;;;;;11.70;10.50;;;23.80;72.20;;;;;;5029216;28;19920;-53
2023/09/12 08:14:21;;;;;;;11.52;9.80;;;23.70;72.20;;;;;;5026593;28;20044;-50
2023/09/12 08:16:48;;;;;;;9.70;8.35;;;23.70;72.40;;;;;;5030122;28;20092;-51
2023/09/12 08:19:14;;;;;;;10.10;7.97;;;23.70;72.30;;;;;;5030510;28;20037;-52
2023/09/12 08:21:50;;;;;;;9.55;7.80;;;23.70;71.80;;;;;;5020710;28;20116;-51
2023/09/12 08:24:16;;;;;;;9.68;7.95;;;23.70;71.90;;;;;;5027969;28;20105;-53
2023/09/12 08:26:43;;;;;;;8.15;7.40;;;23.70;71.60;;;;;;5029480;28;20166;-52
2023/09/12 08:29:10;;;;;;;10.20;7.65;;;23.70;71.90;;;;;;5030412;28;20049;-51
2023/09/12 08:31:36;;;;;;;10.63;8.30;;;23.70;72.60;;;;;;5026585;28;20076;-52
2023/09/12 08:34:05;;;;;;;10.32;6.82;;;23.70;71.50;;;;;;5027189;28;20099;-51
2023/09/12 08:36:43;;;;;;;7.43;6.75;;;23.70;71.40;;;;;;5026363;28;20134;-52
2023/09/12 08:39:15;;;;;;;8.93;8.02;;;23.70;71.10;;;;;;5024521;28;20049;-52
2023/09/12 08:41:48;;;;;;;8.32;7.53;;;23.70;72.20;;;;;;5028362;28;20041;-52
2023/09/12 08:44:23;;;;;;;7.60;6.80;;;23.70;71.70;;;;;;5029585;28;20088;-54
2023/09/12 08:46:52;;;;;;;8.00;6.95;;;23.70;71.60;;;;;;5028466;28;20045;-51
2023/09/12 08:49:19;;;;;;;7.85;7.15;;;23.70;71.70;;;;;;5029094;28;20043;-53
2023/09/12 08:51:46;;;;;;;8.75;7.07;;;23.80;71.80;;;;;;5029601;28;20045;-52
2023/09/12 08:54:13;;;;;;;7.75;7.05;;;23.80;71.50;;;;;;5028019;28;20049;-51
2023/09/12 08:56:44;;;;;;;7.15;6.47;;;23.80;71.30;;;;;;5024642;28;20045;-52
2023/09/12 08:59:12;;;;;;;7.28;5.43;;;23.80;71.00;;;;;;5030264;28;20048;-54
2023/09/12 09:01:42;;;;;;;5.93;5.10;;;23.80;70.80;;;;;;5028768;28;20063;-55
2023/09/12 09:04:13;;;;;;;;;;;23.90;70.60;;;;;;5027769;28;20052;-54
2023/09/12 09:06:49;;;;;;;5.47;4.97;;;24.00;70.50;;;;;;5029055;28;19971;-54
2023/09/12 09:09:19;;;;;;;5.00;4.53;;;24.00;70.10;;;;;;5028786;28;20577;-54
2023/09/12 09:11:45;;;;;;;6.88;5.68;;;24.00;69.60;;;;;;5028304;28;20060;-53
2023/09/12 09:14:13;;;;;;;5.90;5.38;;;24.00;69.70;;;;;;5027363;28;20504;-52
2023/09/12 09:16:43;;;;;;;5.18;4.65;;;24.00;69.80;;;;;;5029637;28;20137;-53
2023/09/12 09:19:12;;;;;;;5.57;5.07;;;24.00;69.70;;;;;;5028832;28;20037;-52
2023/09/12 09:21:40;;;;;;;6.30;5.70;;;24.10;70.00;;;;;;5026609;28;20065;-55
2023/09/12 09:24:10;;;;;;;8.75;7.90;;;24.20;70.40;;;;;;5026039;28;20124;-51
2023/09/12 09:26:49;;;;;;;8.23;7.47;;;24.20;70.90;;;;;;5028136;28;20060;-55
2023/09/12 09:29:20;;;;;;;8.20;7.32;;;24.30;70.60;;;;;;5029617;28;20499;-55
2023/09/12 09:31:53;;;;;;;10.52;7.13;;;24.30;70.00;;;;;;5025542;28;20111;-54
2023/09/12 09:34:23;;;;;;;7.70;6.90;;;24.30;70.00;;;;;;5028736;28;20042;-52
2023/09/12 09:36:56;;;;;;;7.78;7.00;;;24.30;69.60;;;;;;5032764;28;20041;-55
2023/09/12 09:39:31;;;;;;;6.85;6.15;;;24.30;69.60;;;;;;5033753;28;20037;-55
2023/09/12 09:42:01;;;;;;;6.70;6.05;;;24.40;69.30;;;;;;5027577;28;20046;-55
2023/09/12 09:44:32;;;;;;;7.53;6.53;;;24.40;69.60;;;;;;5031212;28;20040;-55
2023/09/12 09:47:04;;;;;;;6.30;5.70;;;24.50;69.90;;;;;;5033101;28;20141;-53
2023/09/12 09:49:36;;;;;;;7.20;5.95;;;24.50;69.80;;;;;;5032507;28;20117;-55
2023/09/12 09:52:06;;;;;;;8.00;6.72;;;24.50;70.00;;;;;;5032195;28;20041;-55
2023/09/12 09:54:43;;;;;;;8.80;7.38;;;24.60;69.40;;;;;;5026117;28;20045;-54
2023/09/12 09:57:20;;;;;;;8.80;7.25;;;24.70;69.70;;;;;;5032728;28;20048;-55
2023/09/12 09:59:52;;;;;;;7.70;6.90;;;24.70;69.70;;;;;;5032192;28;20049;-55
2023/09/12 10:02:27;;;;;;;9.07;7.97;;;24.70;69.30;;;;;;5029247;28;20049;-53
2023/09/12 10:04:56;;;;;;;9.93;8.77;;;24.80;69.70;;;;;;5027336;28;20049;-51
2023/09/12 10:07:27;;;;;;;8.93;8.02;;;24.90;69.30;;;;;;5032375;28;20055;-51
2023/09/12 10:10:03;;;;;;;8.05;7.28;;;24.90;68.60;;;;;;5026494;28;20038;-52
2023/09/12 10:12:37;;;;;;;9.80;7.30;;;25.00;68.40;;;;;;5031040;28;20107;-53
2023/09/12 10:15:08;;;;;;;6.75;6.05;;;25.10;68.00;;;;;;5031303;28;20065;-51
2023/09/12 10:17:41;;;;;;;9.85;8.05;;;25.10;67.80;;;;;;5029567;28;20053;-52
2023/09/12 10:20:17;;;;;;;7.70;7.05;;;25.20;67.70;;;;;;5032908;28;20104;-52
2023/09/12 10:23:10;;;;;;;8.05;7.28;;;25.30;67.70;;;;;;5027618;28;20048;-53
2023/09/12 10:25:43;;;;;;;6.47;5.88;;;25.30;67.50;;;;;;5029884;28;20113;-54
2023/09/12 10:28:14;;;;;;;9.10;8.20;;;25.40;67.80;;;;;;5031971;28;20034;-52
2023/09/12 10:30:42;;;;;;;11.02;10.02;;;25.40;67.00;;;;;;5028472;28;20061;-53
2023/09/12 10:33:19;;;;;;;10.23;9.15;;;25.50;66.90;;;;;;5030144;28;20038;-54
2023/09/12 10:35:46;;;;;;;9.40;8.50;;;25.60;66.80;;;;;;5028768;28;20092;-53
2023/09/12 10:38:21;;;;;;;10.68;9.40;;;25.60;67.10;;;;;;5029537;28;20042;-51
2023/09/12 10:40:54;;;;;;;13.05;7.65;;;25.70;67.30;;;;;;5030704;28;20041;-53
2023/09/12 10:43:23;;;;;;;9.13;8.10;;;25.80;66.60;;;;;;5031175;28;20045;-55
2023/09/12 10:45:52;;;;;;;11.93;8.93;;;25.90;65.70;;;;;;5030914;28;20065;-53
2023/09/12 10:48:19;;;;;;;12.48;10.45;;;26.00;65.30;;;;;;5027476;28;20046;-56
2023/09/12 10:50:46;;;;;;;11.57;10.38;;;26.10;65.30;;;;;;5031680;28;20049;-55
2023/09/12 10:53:15;;;;;;;10.48;9.50;;;26.10;65.60;;;;;;5027516;28;20064;-51
2023/09/12 10:55:57;;;;;;;12.45;11.15;;;26.20;66.00;;;;;;5032205;28;20049;-50
2023/09/12 10:58:24;;;;;;;12.32;11.02;;;26.20;65.90;;;;;;5029788;28;20069;-53
2023/09/12 11:01:22;;;;;;;11.73;9.75;;;26.20;64.70;;;;;;5024133;28;20053;-50
2023/09/12 11:03:52;;;;;;;12.93;9.27;;;26.20;65.80;;;;;;5029936;28;20088;-53
2023/09/12 11:06:39;;;;;;;11.98;10.48;;;26.20;64.80;;;;;;5029431;28;20041;-54
2023/09/12 11:09:14;;;;;;;10.52;9.55;;;26.20;64.80;;;;;;5031508;28;20583;-53
2023/09/12 11:11:46;;;;;;;11.82;10.60;;;26.20;65.20;;;;;;5030485;28;20091;-54
2023/09/12 11:14:16;;;;;;;10.80;9.02;;;26.20;64.60;;;;;;5029304;28;20053;-51
2023/09/12 11:17:03;;;;;;;10.75;9.65;;;26.20;64.10;;;;;;5031052;28;20128;-55
2023/09/12 11:19:52;;;;;;;11.25;9.15;;;26.20;64.10;;;;;;5031271;28;20087;-53
2023/09/12 11:22:31;;;;;;;9.18;8.13;;;26.30;64.30;;;;;;5030106;28;20042;-53
2023/09/12 11:25:15;;;;;;;10.02;9.05;;;26.30;63.70;;;;;;5027609;28;20060;-52
2023/09/12 11:28:04;;;;;;;10.03;8.70;;;26.40;63.90;;;;;;5043663;28;20084;-56
2023/09/12 11:30:34;;;;;;;9.85;8.85;;;26.40;63.30;;;;;;5029140;28;20041;-53
2023/09/12 11:33:07;;;;;;;9.82;8.93;;;26.40;63.40;;;;;;5027324;28;20112;-52
2023/09/12 11:35:39;;;;;;;10.95;8.93;;;26.50;63.20;;;;;;5029312;28;20046;-53
2023/09/12 11:38:11;;;;;;;12.55;9.57;;;26.60;63.90;;;;;;5045509;23;20117;-49
2023/09/12 11:40:37;;;;;;;9.52;8.57;;;26.60;63.40;;;;;;5021075;28;20045;-53
2023/09/12 11:43:05;;;;;;;11.77;9.15;;;26.70;63.40;;;;;;5029768;28;20040;-54
2023/09/12 11:45:33;;;;;;;9.20;8.32;;;26.70;62.50;;;;;;5031577;28;20050;-54
2023/09/12 11:48:02;;;;;;;10.38;9.23;;;26.80;62.20;;;;;;5022882;28;20045;-54
2023/09/12 11:50:35;;;;;;;9.00;8.18;;;26.90;61.60;;;;;;5030447;28;20034;-51
2023/09/12 11:53:06;;;;;;;10.05;8.48;;;27.00;61.80;;;;;;5030048;28;20049;-53
2023/09/12 11:55:36;;;;;;;9.77;8.27;;;27.10;61.60;;;;;;5025546;28;20053;-49
2023/09/12 11:58:03;;;;;;;8.23;7.53;;;27.20;62.40;;;;;;5029694;28;20116;-52
2023/09/12 12:00:30;;;;;;;8.40;7.60;;;27.40;62.00;;;;;;5030512;28;20092;-53
2023/09/12 12:02:57;;;;;;;7.30;6.57;;;27.40;61.40;;;;;;5025972;28;20049;-54
2023/09/12 12:05:29;;;;;;;6.97;6.28;;;27.50;61.00;;;;;;5028854;28;20048;-54
2023/09/12 12:07:59;;;;;;;9.05;7.82;;;27.70;61.00;;;;;;5030075;28;20128;-53
2023/09/12 12:10:51;;;;;;;7.88;6.50;;;27.70;61.00;;;;;;5029296;28;20048;-52
2023/09/12 12:13:24;;;;;;;8.95;7.95;;;27.80;59.70;;;;;;5024811;28;20073;-54
2023/09/12 12:15:53;;;;;;;7.90;7.13;;;27.90;59.80;;;;;;5029488;28;20573;-55
2023/09/12 12:18:20;;;;;;;8.52;7.72;;;28.00;60.10;;;;;;5029197;28;20559;-53
2023/09/12 12:20:47;;;;;;;7.75;7.03;;;28.10;60.10;;;;;;5028017;28;20048;-53
2023/09/12 12:23:14;;;;;;;9.13;6.68;;;28.20;59.90;;;;;;5030137;28;20033;-52
2023/09/12 12:25:43;;;;;;;7.57;6.88;;;28.30;60.30;;;;;;5030082;28;20452;-51
2023/09/12 12:28:09;;;;;;;7.57;6.57;;;28.40;59.60;;;;;;5029208;28;20049;-54
2023/09/12 12:30:36;;;;;;;10.10;7.13;;;28.50;58.40;;;;;;5027662;28;21298;-53
2023/09/12 12:33:12;;;;;;;6.55;5.88;;;28.60;58.00;;;;;;5030338;28;20053;-54
2023/09/12 12:36:07;;;;;;;7.03;6.40;;;28.70;57.70;;;;;;5026416;28;20418;-54
2023/09/12 12:38:39;;;;;;;8.23;7.43;;;28.80;57.80;;;;;;5029077;28;20057;-53
2023/09/12 12:41:29;;;;;;;8.35;7.60;;;28.90;57.30;;;;;;5028355;28;20041;-54
2023/09/12 12:44:19;;;;;;;7.82;7.03;;;28.90;57.60;;;;;;5024479;28;20034;-53
2023/09/12 12:46:52;;;;;;;8.48;7.60;;;29.00;57.50;;;;;;5029171;28;20112;-52
2023/09/12 12:49:20;;;;;;;6.57;5.97;;;29.00;57.00;;;;;;5028963;28;20041;-54
2023/09/12 12:51:48;;;;;;;6.43;5.70;;;29.00;57.60;;;;;;5027208;28;20508;-54